METAR Data
IDs: Format: Raw Decoded Include TAF

Data at: 1432 UTC 21 Feb 2019

METAR for:KOUN (Norman/Univ Oklahoma, OK, US)
Text:KOUN 211345Z 10006KT 10SM CLR 03/00 A3002
Temperature: 3.0°C ( 37°F)
Dewpoint: 0.0°C ( 32°F) [RH = 81%]
Pressure (altimeter):30.02 inches Hg (1016.7 mb)
Winds:from the E (100 degrees) at 7 MPH (6 knots; 3.1 m/s)
Visibility:10 or more sm (16+ km)
Ceiling:at least 12,000 feet AGL
Clouds:sky clear below 12,000 feet AGL
Text:KOUN 211335Z AUTO 10007KT 10SM CLR 02/00 A3000 RMK AO2 T00231000
Temperature: 2.3°C ( 36°F)
Dewpoint: 0.0°C ( 32°F) [RH = 85%]
Pressure (altimeter):30.00 inches Hg (1016.0 mb)
Winds:from the E (100 degrees) at 8 MPH (7 knots; 3.6 m/s)
Visibility:10 or more sm (16+ km)
Ceiling:at least 12,000 feet AGL
Clouds:sky clear below 12,000 feet AGL
QC Flag:automated observation with no human augmentation
Text:KOUN 211315Z AUTO 07005KT 10SM CLR 02/00 A3000 RMK AO2 T00201001
Temperature: 2.0°C ( 36°F)
Dewpoint: -0.1°C ( 32°F) [RH = 86%]
Pressure (altimeter):30.00 inches Hg (1016.0 mb)
Winds:from the ENE (70 degrees) at 6 MPH (5 knots; 2.6 m/s)
Visibility:10 or more sm (16+ km)
Ceiling:at least 12,000 feet AGL
Clouds:sky clear below 12,000 feet AGL
QC Flag:automated observation with no human augmentation
Text:KOUN 211255Z AUTO 08006KT 10SM CLR 02/00 A3001 RMK AO2 T00191003
Temperature: 1.9°C ( 35°F)
Dewpoint: -0.3°C ( 31°F) [RH = 85%]
Pressure (altimeter):30.01 inches Hg (1016.3 mb)
Winds:from the E (80 degrees) at 7 MPH (6 knots; 3.1 m/s)
Visibility:10 or more sm (16+ km)
Ceiling:at least 12,000 feet AGL
Clouds:sky clear below 12,000 feet AGL
QC Flag:automated observation with no human augmentation
Text:KOUN 211235Z AUTO 09006KT 10SM CLR 02/00 A3001 RMK AO2 T00201003
Temperature: 2.0°C ( 36°F)
Dewpoint: -0.3°C ( 31°F) [RH = 85%]
Pressure (altimeter):30.01 inches Hg (1016.3 mb)
Winds:from the E (90 degrees) at 7 MPH (6 knots; 3.1 m/s)
Visibility:10 or more sm (16+ km)
Ceiling:at least 12,000 feet AGL
Clouds:sky clear below 12,000 feet AGL
QC Flag:automated observation with no human augmentation
Text:KOUN 211215Z AUTO 11004KT 10SM CLR 02/00 A3001 RMK AO2 T00181004
Temperature: 1.8°C ( 35°F)
Dewpoint: -0.4°C ( 31°F) [RH = 85%]
Pressure (altimeter):30.01 inches Hg (1016.3 mb)
Winds:from the ESE (110 degrees) at 5 MPH (4 knots; 2.1 m/s)
Visibility:10 or more sm (16+ km)
Ceiling:at least 12,000 feet AGL
Clouds:sky clear below 12,000 feet AGL
QC Flag:automated observation with no human augmentation
Text:KOUN 211155Z AUTO 10005KT 10SM CLR 02/00 A2999 RMK AO2 T00201003 10027 20015
Temperature: 2.0°C ( 36°F)
Dewpoint: -0.3°C ( 31°F) [RH = 85%]
Pressure (altimeter):29.99 inches Hg (1015.7 mb)
Winds:from the E (100 degrees) at 6 MPH (5 knots; 2.6 m/s)
Visibility:10 or more sm (16+ km)
Ceiling:at least 12,000 feet AGL
Clouds:sky clear below 12,000 feet AGL
QC Flag:automated observation with no human augmentation
Text:KOUN 211135Z AUTO 09004KT 10SM CLR 02/00 A2999 RMK AO2 T00181004
Temperature: 1.8°C ( 35°F)
Dewpoint: -0.4°C ( 31°F) [RH = 85%]
Pressure (altimeter):29.99 inches Hg (1015.7 mb)
Winds:from the E (90 degrees) at 5 MPH (4 knots; 2.1 m/s)
Visibility:10 or more sm (16+ km)
Ceiling:at least 12,000 feet AGL
Clouds:sky clear below 12,000 feet AGL
QC Flag:automated observation with no human augmentation
Text:KOUN 211115Z AUTO 09006KT 10SM CLR 02/00 A2998 RMK AO2 T00201003
Temperature: 2.0°C ( 36°F)
Dewpoint: -0.3°C ( 31°F) [RH = 85%]
Pressure (altimeter):29.98 inches Hg (1015.3 mb)
Winds:from the E (90 degrees) at 7 MPH (6 knots; 3.1 m/s)
Visibility:10 or more sm (16+ km)
Ceiling:at least 12,000 feet AGL
Clouds:sky clear below 12,000 feet AGL
QC Flag:automated observation with no human augmentation
Text:KOUN 211055Z AUTO 09005KT 10SM CLR 02/00 A2997 RMK AO2 T00241002
Temperature: 2.4°C ( 36°F)
Dewpoint: -0.2°C ( 32°F) [RH = 83%]
Pressure (altimeter):29.97 inches Hg (1015.0 mb)
Winds:from the E (90 degrees) at 6 MPH (5 knots; 2.6 m/s)
Visibility:10 or more sm (16+ km)
Ceiling:at least 12,000 feet AGL
Clouds:sky clear below 12,000 feet AGL
QC Flag:automated observation with no human augmentation
Text:KOUN 211035Z AUTO 11009KT 10SM CLR 02/00 A2997 RMK AO2 T00241003
Temperature: 2.4°C ( 36°F)
Dewpoint: -0.3°C ( 31°F) [RH = 82%]
Pressure (altimeter):29.97 inches Hg (1015.0 mb)
Winds:from the ESE (110 degrees) at 10 MPH (9 knots; 4.6 m/s)
Visibility:10 or more sm (16+ km)
Ceiling:at least 12,000 feet AGL
Clouds:sky clear below 12,000 feet AGL
QC Flag:automated observation with no human augmentation
Text:KOUN 211015Z AUTO 10008KT 10SM CLR 02/00 A2997 RMK AO2 T00211003
Temperature: 2.1°C ( 36°F)
Dewpoint: -0.3°C ( 31°F) [RH = 84%]
Pressure (altimeter):29.97 inches Hg (1015.0 mb)
Winds:from the E (100 degrees) at 9 MPH (8 knots; 4.1 m/s)
Visibility:10 or more sm (16+ km)
Ceiling:at least 12,000 feet AGL
Clouds:sky clear below 12,000 feet AGL
QC Flag:automated observation with no human augmentation
Text:KOUN 210955Z AUTO 09006KT 10SM CLR 02/00 A2998 RMK AO2 T00201004
Temperature: 2.0°C ( 36°F)
Dewpoint: -0.4°C ( 31°F) [RH = 84%]
Pressure (altimeter):29.98 inches Hg (1015.3 mb)
Winds:from the E (90 degrees) at 7 MPH (6 knots; 3.1 m/s)
Visibility:10 or more sm (16+ km)
Ceiling:at least 12,000 feet AGL
Clouds:sky clear below 12,000 feet AGL
QC Flag:automated observation with no human augmentation
Text:KOUN 210935Z AUTO 09007KT 10SM CLR 02/M01 A2998 RMK AO2 T00191005
Temperature: 1.9°C ( 35°F)
Dewpoint: -0.5°C ( 31°F) [RH = 84%]
Pressure (altimeter):29.98 inches Hg (1015.3 mb)
Winds:from the E (90 degrees) at 8 MPH (7 knots; 3.6 m/s)
Visibility:10 or more sm (16+ km)
Ceiling:at least 12,000 feet AGL
Clouds:sky clear below 12,000 feet AGL
QC Flag:automated observation with no human augmentation
Text:KOUN 210915Z AUTO 08007KT 10SM CLR 02/M01 A2997 RMK AO2 T00181006
Temperature: 1.8°C ( 35°F)
Dewpoint: -0.6°C ( 31°F) [RH = 84%]
Pressure (altimeter):29.97 inches Hg (1015.0 mb)
Winds:from the E (80 degrees) at 8 MPH (7 knots; 3.6 m/s)
Visibility:10 or more sm (16+ km)
Ceiling:at least 12,000 feet AGL
Clouds:sky clear below 12,000 feet AGL
QC Flag:automated observation with no human augmentation
Text:KOUN 210855Z AUTO 08006KT 10SM CLR 02/M01 A2997 RMK AO2 T00191007
Temperature: 1.9°C ( 35°F)
Dewpoint: -0.7°C ( 31°F) [RH = 83%]
Pressure (altimeter):29.97 inches Hg (1015.0 mb)
Winds:from the E (80 degrees) at 7 MPH (6 knots; 3.1 m/s)
Visibility:10 or more sm (16+ km)
Ceiling:at least 12,000 feet AGL
Clouds:sky clear below 12,000 feet AGL
QC Flag:automated observation with no human augmentation
Text:KOUN 210835Z AUTO 07008KT 10SM CLR 02/M01 A2995 RMK AO2 T00191006
Temperature: 1.9°C ( 35°F)
Dewpoint: -0.6°C ( 31°F) [RH = 83%]
Pressure (altimeter):29.95 inches Hg (1014.3 mb)
Winds:from the ENE (70 degrees) at 9 MPH (8 knots; 4.1 m/s)
Visibility:10 or more sm (16+ km)
Ceiling:at least 12,000 feet AGL
Clouds:sky clear below 12,000 feet AGL
QC Flag:automated observation with no human augmentation
Text:KOUN 210815Z AUTO 07009KT 10SM CLR 02/M01 A2996 RMK AO2 T00201006
Temperature: 2.0°C ( 36°F)
Dewpoint: -0.6°C ( 31°F) [RH = 83%]
Pressure (altimeter):29.96 inches Hg (1014.6 mb)
Winds:from the ENE (70 degrees) at 10 MPH (9 knots; 4.6 m/s)
Visibility:10 or more sm (16+ km)
Ceiling:at least 12,000 feet AGL
Clouds:sky clear below 12,000 feet AGL
QC Flag:automated observation with no human augmentation
Text:KOUN 210755Z AUTO 07008KT 10SM CLR 02/M01 A2996 RMK AO2 T00191007
Temperature: 1.9°C ( 35°F)
Dewpoint: -0.7°C ( 31°F) [RH = 83%]
Pressure (altimeter):29.96 inches Hg (1014.6 mb)
Winds:from the ENE (70 degrees) at 9 MPH (8 knots; 4.1 m/s)
Visibility:10 or more sm (16+ km)
Ceiling:at least 12,000 feet AGL
Clouds:sky clear below 12,000 feet AGL
QC Flag:automated observation with no human augmentation
Text:KOUN 210735Z AUTO 07007KT 10SM CLR 02/M01 A2997 RMK AO2 T00201008
Temperature: 2.0°C ( 36°F)
Dewpoint: -0.8°C ( 31°F) [RH = 82%]
Pressure (altimeter):29.97 inches Hg (1015.0 mb)
Winds:from the ENE (70 degrees) at 8 MPH (7 knots; 3.6 m/s)
Visibility:10 or more sm (16+ km)
Ceiling:at least 12,000 feet AGL
Clouds:sky clear below 12,000 feet AGL
QC Flag:automated observation with no human augmentation
Text:KOUN 210715Z AUTO 07008KT 10SM CLR 02/M01 A2997 RMK AO2 T00211007
Temperature: 2.1°C ( 36°F)
Dewpoint: -0.7°C ( 31°F) [RH = 82%]
Pressure (altimeter):29.97 inches Hg (1015.0 mb)
Winds:from the ENE (70 degrees) at 9 MPH (8 knots; 4.1 m/s)
Visibility:10 or more sm (16+ km)
Ceiling:at least 12,000 feet AGL
Clouds:sky clear below 12,000 feet AGL
QC Flag:automated observation with no human augmentation
Text:KOUN 210655Z AUTO 08009KT 10SM CLR 03/M01 A2998 RMK AO2 T00261007
Temperature: 2.6°C ( 37°F)
Dewpoint: -0.7°C ( 31°F) [RH = 79%]
Pressure (altimeter):29.98 inches Hg (1015.3 mb)
Winds:from the E (80 degrees) at 10 MPH (9 knots; 4.6 m/s)
Visibility:10 or more sm (16+ km)
Ceiling:at least 12,000 feet AGL
Clouds:sky clear below 12,000 feet AGL
QC Flag:automated observation with no human augmentation
Text:KOUN 210635Z AUTO 07007KT 10SM CLR 02/M01 A2998 RMK AO2 T00241009
Temperature: 2.4°C ( 36°F)
Dewpoint: -0.9°C ( 30°F) [RH = 79%]
Pressure (altimeter):29.98 inches Hg (1015.3 mb)
Winds:from the ENE (70 degrees) at 8 MPH (7 knots; 3.6 m/s)
Visibility:10 or more sm (16+ km)
Ceiling:at least 12,000 feet AGL
Clouds:sky clear below 12,000 feet AGL
QC Flag:automated observation with no human augmentation
Text:KOUN 210615Z AUTO 08010KT 10SM CLR 03/M01 A2998 RMK AO2 T00261010
Temperature: 2.6°C ( 37°F)
Dewpoint: -1.0°C ( 30°F) [RH = 77%]
Pressure (altimeter):29.98 inches Hg (1015.3 mb)
Winds:from the E (80 degrees) at 12 MPH (10 knots; 5.1 m/s)
Visibility:10 or more sm (16+ km)
Ceiling:at least 12,000 feet AGL
Clouds:sky clear below 12,000 feet AGL
QC Flag:automated observation with no human augmentation
Text:KOUN 210555Z AUTO 07011KT 10SM CLR 03/M01 A2998 RMK AO2 T00271011 10086 20026
Temperature: 2.7°C ( 37°F)
Dewpoint: -1.1°C ( 30°F) [RH = 76%]
Pressure (altimeter):29.98 inches Hg (1015.3 mb)
Winds:from the ENE (70 degrees) at 13 MPH (11 knots; 5.7 m/s)
Visibility:10 or more sm (16+ km)
Ceiling:at least 12,000 feet AGL
Clouds:sky clear below 12,000 feet AGL
QC Flag:automated observation with no human augmentation
Text:KOUN 210535Z AUTO 06011KT 10SM CLR 03/M01 A2999 RMK AO2 T00281013
Temperature: 2.8°C ( 37°F)
Dewpoint: -1.3°C ( 30°F) [RH = 74%]
Pressure (altimeter):29.99 inches Hg (1015.7 mb)
Winds:from the ENE (60 degrees) at 13 MPH (11 knots; 5.7 m/s)
Visibility:10 or more sm (16+ km)
Ceiling:at least 12,000 feet AGL
Clouds:sky clear below 12,000 feet AGL
QC Flag:automated observation with no human augmentation
Text:KOUN 210515Z AUTO 06010KT 10SM CLR 03/M01 A2998 RMK AO2 T00291015
Temperature: 2.9°C ( 37°F)
Dewpoint: -1.5°C ( 29°F) [RH = 73%]
Pressure (altimeter):29.98 inches Hg (1015.3 mb)
Winds:from the ENE (60 degrees) at 12 MPH (10 knots; 5.1 m/s)
Visibility:10 or more sm (16+ km)
Ceiling:at least 12,000 feet AGL
Clouds:sky clear below 12,000 feet AGL
QC Flag:automated observation with no human augmentation
Text:KOUN 210455Z AUTO 06008KT 10SM CLR 03/M02 A2998 RMK AO2 T00321017
Temperature: 3.2°C ( 38°F)
Dewpoint: -1.7°C ( 29°F) [RH = 70%]
Pressure (altimeter):29.98 inches Hg (1015.3 mb)
Winds:from the ENE (60 degrees) at 9 MPH (8 knots; 4.1 m/s)
Visibility:10 or more sm (16+ km)
Ceiling:at least 12,000 feet AGL
Clouds:sky clear below 12,000 feet AGL
QC Flag:automated observation with no human augmentation
Text:KOUN 210435Z AUTO 07008KT 10SM CLR 03/M02 A2998 RMK AO2 T00321021
Temperature: 3.2°C ( 38°F)
Dewpoint: -2.1°C ( 28°F) [RH = 68%]
Pressure (altimeter):29.98 inches Hg (1015.3 mb)
Winds:from the ENE (70 degrees) at 9 MPH (8 knots; 4.1 m/s)
Visibility:10 or more sm (16+ km)
Ceiling:at least 12,000 feet AGL
Clouds:sky clear below 12,000 feet AGL
QC Flag:automated observation with no human augmentation
Text:KOUN 210415Z AUTO 06007KT 10SM CLR 04/M03 A2997 RMK AO2 T00371026
Temperature: 3.7°C ( 39°F)
Dewpoint: -2.6°C ( 27°F) [RH = 63%]
Pressure (altimeter):29.97 inches Hg (1015.0 mb)
Winds:from the ENE (60 degrees) at 8 MPH (7 knots; 3.6 m/s)
Visibility:10 or more sm (16+ km)
Ceiling:at least 12,000 feet AGL
Clouds:sky clear below 12,000 feet AGL
QC Flag:automated observation with no human augmentation
Text:KOUN 210355Z AUTO 06006KT 10SM CLR 04/M03 A2996 RMK AO2 T00451030
Temperature: 4.5°C ( 40°F)
Dewpoint: -3.0°C ( 27°F) [RH = 58%]
Pressure (altimeter):29.96 inches Hg (1014.6 mb)
Winds:from the ENE (60 degrees) at 7 MPH (6 knots; 3.1 m/s)
Visibility:10 or more sm (16+ km)
Ceiling:at least 12,000 feet AGL
Clouds:sky clear below 12,000 feet AGL
QC Flag:automated observation with no human augmentation
Text:KOUN 210245Z 05007KT 10SM CLR 04/M03 A2994
Temperature: 4.0°C ( 39°F)
Dewpoint: -3.0°C ( 27°F) [RH = 60%]
Pressure (altimeter):29.94 inches Hg (1014.0 mb)
Winds:from the NE (50 degrees) at 8 MPH (7 knots; 3.6 m/s)
Visibility:10 or more sm (16+ km)
Ceiling:at least 12,000 feet AGL
Clouds:sky clear below 12,000 feet AGL